sensor_id;sensor_type;location;lat;lon;timestamp;P1;durP1;ratioP1;P2;durP2;ratioP2
21621;SDS011;10973;46.706;12.340;2023-04-03T00:01:14;1.03;;;1.03;;
21621;SDS011;10973;46.706;12.340;2023-04-03T00:03:41;1.10;;;1.10;;
21621;SDS011;10973;46.706;12.340;2023-04-03T00:06:09;1.13;;;1.13;;
21621;SDS011;10973;46.706;12.340;2023-04-03T00:08:37;1.00;;;1.00;;
21621;SDS011;10973;46.706;12.340;2023-04-03T00:11:06;1.00;;;1.00;;
21621;SDS011;10973;46.706;12.340;2023-04-03T00:13:35;1.03;;;1.03;;
21621;SDS011;10973;46.706;12.340;2023-04-03T00:16:04;0.90;;;0.90;;
21621;SDS011;10973;46.706;12.340;2023-04-03T00:18:34;1.03;;;1.00;;
21621;SDS011;10973;46.706;12.340;2023-04-03T00:21:02;1.10;;;1.10;;
21621;SDS011;10973;46.706;12.340;2023-04-03T00:23:30;0.90;;;0.90;;
21621;SDS011;10973;46.706;12.340;2023-04-03T00:26:00;1.10;;;1.00;;
21621;SDS011;10973;46.706;12.340;2023-04-03T00:28:28;1.10;;;1.10;;
21621;SDS011;10973;46.706;12.340;2023-04-03T00:30:56;1.53;;;1.00;;
21621;SDS011;10973;46.706;12.340;2023-04-03T00:33:23;1.00;;;1.00;;
21621;SDS011;10973;46.706;12.340;2023-04-03T00:35:51;1.20;;;1.20;;
21621;SDS011;10973;46.706;12.340;2023-04-03T00:38:19;0.90;;;0.90;;
21621;SDS011;10973;46.706;12.340;2023-04-03T00:40:47;1.23;;;1.20;;
21621;SDS011;10973;46.706;12.340;2023-04-03T00:43:25;1.07;;;1.07;;
21621;SDS011;10973;46.706;12.340;2023-04-03T00:45:53;1.00;;;1.00;;
21621;SDS011;10973;46.706;12.340;2023-04-03T00:48:29;0.90;;;0.90;;
21621;SDS011;10973;46.706;12.340;2023-04-03T00:51:06;1.10;;;1.00;;
21621;SDS011;10973;46.706;12.340;2023-04-03T00:53:43;1.10;;;1.10;;
21621;SDS011;10973;46.706;12.340;2023-04-03T00:56:17;1.33;;;1.33;;
21621;SDS011;10973;46.706;12.340;2023-04-03T00:58:54;1.20;;;1.20;;
21621;SDS011;10973;46.706;12.340;2023-04-03T01:01:29;0.93;;;0.93;;
21621;SDS011;10973;46.706;12.340;2023-04-03T01:04:00;0.90;;;0.90;;
21621;SDS011;10973;46.706;12.340;2023-04-03T01:06:29;1.07;;;1.00;;
21621;SDS011;10973;46.706;12.340;2023-04-03T01:09:03;1.10;;;1.10;;
21621;SDS011;10973;46.706;12.340;2023-04-03T01:11:32;1.10;;;1.10;;
21621;SDS011;10973;46.706;12.340;2023-04-03T01:13:59;1.13;;;1.13;;
21621;SDS011;10973;46.706;12.340;2023-04-03T01:16:27;1.07;;;1.07;;
21621;SDS011;10973;46.706;12.340;2023-04-03T01:18:54;1.20;;;1.20;;
21621;SDS011;10973;46.706;12.340;2023-04-03T01:21:35;1.30;;;1.20;;
21621;SDS011;10973;46.706;12.340;2023-04-03T01:24:32;1.00;;;1.00;;
21621;SDS011;10973;46.706;12.340;2023-04-03T01:27:04;0.97;;;0.97;;
21621;SDS011;10973;46.706;12.340;2023-04-03T01:29:35;1.10;;;1.10;;
21621;SDS011;10973;46.706;12.340;2023-04-03T01:32:04;1.00;;;1.00;;
21621;SDS011;10973;46.706;12.340;2023-04-03T01:34:31;1.10;;;1.10;;
21621;SDS011;10973;46.706;12.340;2023-04-03T01:36:59;1.10;;;1.10;;
21621;SDS011;10973;46.706;12.340;2023-04-03T01:39:26;1.13;;;1.13;;
21621;SDS011;10973;46.706;12.340;2023-04-03T01:41:54;0.90;;;0.90;;
21621;SDS011;10973;46.706;12.340;2023-04-03T01:44:21;0.97;;;0.97;;
21621;SDS011;10973;46.706;12.340;2023-04-03T01:46:49;1.10;;;1.10;;
21621;SDS011;10973;46.706;12.340;2023-04-03T01:49:16;1.20;;;1.20;;
21621;SDS011;10973;46.706;12.340;2023-04-03T01:51:43;1.30;;;1.30;;
21621;SDS011;10973;46.706;12.340;2023-04-03T01:54:11;2.30;;;1.40;;
21621;SDS011;10973;46.706;12.340;2023-04-03T01:56:38;1.20;;;1.20;;
21621;SDS011;10973;46.706;12.340;2023-04-03T01:59:05;1.23;;;1.23;;
21621;SDS011;10973;46.706;12.340;2023-04-03T02:01:33;1.20;;;1.20;;
21621;SDS011;10973;46.706;12.340;2023-04-03T02:04:00;1.00;;;1.00;;
21621;SDS011;10973;46.706;12.340;2023-04-03T02:06:27;1.00;;;1.00;;
21621;SDS011;10973;46.706;12.340;2023-04-03T02:08:55;1.20;;;1.20;;
21621;SDS011;10973;46.706;12.340;2023-04-03T02:11:22;1.03;;;1.03;;
21621;SDS011;10973;46.706;12.340;2023-04-03T02:13:49;1.10;;;1.10;;
21621;SDS011;10973;46.706;12.340;2023-04-03T02:16:17;1.10;;;1.10;;
21621;SDS011;10973;46.706;12.340;2023-04-03T02:18:44;1.00;;;1.00;;
21621;SDS011;10973;46.706;12.340;2023-04-03T02:21:11;1.23;;;1.23;;
21621;SDS011;10973;46.706;12.340;2023-04-03T02:23:39;1.27;;;1.23;;
21621;SDS011;10973;46.706;12.340;2023-04-03T02:26:07;1.73;;;1.30;;
21621;SDS011;10973;46.706;12.340;2023-04-03T02:28:38;1.30;;;1.20;;
21621;SDS011;10973;46.706;12.340;2023-04-03T02:31:06;1.30;;;1.30;;
21621;SDS011;10973;46.706;12.340;2023-04-03T02:33:34;1.60;;;1.50;;
21621;SDS011;10973;46.706;12.340;2023-04-03T02:36:06;2.53;;;1.60;;
21621;SDS011;10973;46.706;12.340;2023-04-03T02:38:34;2.83;;;1.60;;
21621;SDS011;10973;46.706;12.340;2023-04-03T02:41:03;4.47;;;1.90;;
21621;SDS011;10973;46.706;12.340;2023-04-03T02:43:36;1.73;;;1.63;;
21621;SDS011;10973;46.706;12.340;2023-04-03T02:46:05;1.50;;;1.40;;
21621;SDS011;10973;46.706;12.340;2023-04-03T02:48:33;1.70;;;1.60;;
21621;SDS011;10973;46.706;12.340;2023-04-03T02:51:00;1.83;;;1.40;;
21621;SDS011;10973;46.706;12.340;2023-04-03T02:53:28;1.60;;;1.50;;
21621;SDS011;10973;46.706;12.340;2023-04-03T02:55:55;1.87;;;1.30;;
21621;SDS011;10973;46.706;12.340;2023-04-03T02:58:25;1.33;;;1.20;;
21621;SDS011;10973;46.706;12.340;2023-04-03T03:00:53;1.47;;;1.37;;
21621;SDS011;10973;46.706;12.340;2023-04-03T03:03:20;1.37;;;1.27;;
21621;SDS011;10973;46.706;12.340;2023-04-03T03:05:47;1.40;;;1.30;;
21621;SDS011;10973;46.706;12.340;2023-04-03T03:08:14;1.50;;;1.40;;
21621;SDS011;10973;46.706;12.340;2023-04-03T03:10:42;1.00;;;1.00;;
21621;SDS011;10973;46.706;12.340;2023-04-03T03:13:10;1.60;;;1.30;;
21621;SDS011;10973;46.706;12.340;2023-04-03T03:15:37;2.40;;;1.40;;
21621;SDS011;10973;46.706;12.340;2023-04-03T03:18:05;1.40;;;1.40;;
21621;SDS011;10973;46.706;12.340;2023-04-03T03:20:32;1.93;;;1.70;;
21621;SDS011;10973;46.706;12.340;2023-04-03T03:23:00;1.70;;;1.60;;
21621;SDS011;10973;46.706;12.340;2023-04-03T03:25:27;1.90;;;1.70;;
21621;SDS011;10973;46.706;12.340;2023-04-03T03:27:54;3.47;;;1.90;;
21621;SDS011;10973;46.706;12.340;2023-04-03T03:30:22;2.17;;;1.93;;
21621;SDS011;10973;46.706;12.340;2023-04-03T03:32:49;3.13;;;1.80;;
21621;SDS011;10973;46.706;12.340;2023-04-03T03:35:16;3.73;;;1.67;;
21621;SDS011;10973;46.706;12.340;2023-04-03T03:37:43;3.10;;;1.80;;
21621;SDS011;10973;46.706;12.340;2023-04-03T03:40:11;3.37;;;2.20;;
21621;SDS011;10973;46.706;12.340;2023-04-03T03:42:38;3.87;;;2.57;;
21621;SDS011;10973;46.706;12.340;2023-04-03T03:45:06;4.40;;;2.60;;
21621;SDS011;10973;46.706;12.340;2023-04-03T03:47:34;4.17;;;2.90;;
21621;SDS011;10973;46.706;12.340;2023-04-03T03:50:02;4.60;;;2.87;;
21621;SDS011;10973;46.706;12.340;2023-04-03T03:52:29;1.80;;;1.57;;
21621;SDS011;10973;46.706;12.340;2023-04-03T03:54:57;5.57;;;2.77;;
21621;SDS011;10973;46.706;12.340;2023-04-03T03:57:24;7.87;;;3.30;;
21621;SDS011;10973;46.706;12.340;2023-04-03T03:59:51;4.83;;;3.37;;
21621;SDS011;10973;46.706;12.340;2023-04-03T04:02:20;6.33;;;3.50;;
21621;SDS011;10973;46.706;12.340;2023-04-03T04:04:48;3.73;;;3.20;;
21621;SDS011;10973;46.706;12.340;2023-04-03T04:07:16;9.50;;;3.60;;
21621;SDS011;10973;46.706;12.340;2023-04-03T04:09:43;13.23;;;3.37;;
21621;SDS011;10973;46.706;12.340;2023-04-03T04:12:10;6.47;;;2.73;;
21621;SDS011;10973;46.706;12.340;2023-04-03T04:14:37;4.63;;;2.90;;
21621;SDS011;10973;46.706;12.340;2023-04-03T04:17:05;10.87;;;4.33;;
21621;SDS011;10973;46.706;12.340;2023-04-03T04:19:32;10.67;;;5.10;;
21621;SDS011;10973;46.706;12.340;2023-04-03T04:21:59;7.97;;;6.00;;
21621;SDS011;10973;46.706;12.340;2023-04-03T04:24:27;4.70;;;4.20;;
21621;SDS011;10973;46.706;12.340;2023-04-03T04:26:54;5.73;;;4.33;;
21621;SDS011;10973;46.706;12.340;2023-04-03T04:29:22;11.07;;;5.37;;
21621;SDS011;10973;46.706;12.340;2023-04-03T04:31:49;7.37;;;5.20;;
21621;SDS011;10973;46.706;12.340;2023-04-03T04:34:17;6.53;;;5.20;;
21621;SDS011;10973;46.706;12.340;2023-04-03T04:36:44;12.63;;;6.23;;
21621;SDS011;10973;46.706;12.340;2023-04-03T04:39:11;10.63;;;8.47;;
21621;SDS011;10973;46.706;12.340;2023-04-03T04:41:39;11.50;;;9.20;;
21621;SDS011;10973;46.706;12.340;2023-04-03T04:44:06;9.93;;;6.50;;
21621;SDS011;10973;46.706;12.340;2023-04-03T04:46:33;16.77;;;5.90;;
21621;SDS011;10973;46.706;12.340;2023-04-03T04:49:00;10.43;;;7.30;;
21621;SDS011;10973;46.706;12.340;2023-04-03T04:51:28;14.67;;;10.23;;
21621;SDS011;10973;46.706;12.340;2023-04-03T04:54:06;13.43;;;6.43;;
21621;SDS011;10973;46.706;12.340;2023-04-03T04:56:34;11.70;;;6.87;;
21621;SDS011;10973;46.706;12.340;2023-04-03T04:59:01;9.53;;;6.87;;
21621;SDS011;10973;46.706;12.340;2023-04-03T05:01:28;10.70;;;7.50;;
21621;SDS011;10973;46.706;12.340;2023-04-03T05:03:55;11.60;;;9.10;;
21621;SDS011;10973;46.706;12.340;2023-04-03T05:06:22;17.70;;;12.33;;
21621;SDS011;10973;46.706;12.340;2023-04-03T05:08:50;10.43;;;8.63;;
21621;SDS011;10973;46.706;12.340;2023-04-03T05:11:17;9.87;;;8.10;;
21621;SDS011;10973;46.706;12.340;2023-04-03T05:13:45;8.93;;;8.00;;
21621;SDS011;10973;46.706;12.340;2023-04-03T05:16:12;18.23;;;16.10;;
21621;SDS011;10973;46.706;12.340;2023-04-03T05:18:39;19.07;;;17.17;;
21621;SDS011;10973;46.706;12.340;2023-04-03T05:21:06;24.93;;;20.33;;
21621;SDS011;10973;46.706;12.340;2023-04-03T05:23:33;28.37;;;23.40;;
21621;SDS011;10973;46.706;12.340;2023-04-03T05:26:01;50.43;;;31.60;;
21621;SDS011;10973;46.706;12.340;2023-04-03T05:28:28;28.70;;;19.00;;
21621;SDS011;10973;46.706;12.340;2023-04-03T05:30:57;8.87;;;7.07;;
21621;SDS011;10973;46.706;12.340;2023-04-03T05:33:25;9.70;;;6.30;;
21621;SDS011;10973;46.706;12.340;2023-04-03T05:35:53;9.00;;;8.10;;
21621;SDS011;10973;46.706;12.340;2023-04-03T05:38:21;10.13;;;8.00;;
21621;SDS011;10973;46.706;12.340;2023-04-03T05:40:49;9.30;;;6.43;;
21621;SDS011;10973;46.706;12.340;2023-04-03T05:43:16;7.00;;;5.57;;
21621;SDS011;10973;46.706;12.340;2023-04-03T05:45:43;6.20;;;4.67;;
21621;SDS011;10973;46.706;12.340;2023-04-03T05:48:12;6.93;;;4.97;;
21621;SDS011;10973;46.706;12.340;2023-04-03T05:50:39;11.17;;;7.47;;
21621;SDS011;10973;46.706;12.340;2023-04-03T05:53:06;9.10;;;6.33;;
21621;SDS011;10973;46.706;12.340;2023-04-03T05:55:45;9.60;;;7.47;;
21621;SDS011;10973;46.706;12.340;2023-04-03T05:58:12;5.47;;;4.97;;
21621;SDS011;10973;46.706;12.340;2023-04-03T06:00:39;7.07;;;4.80;;
21621;SDS011;10973;46.706;12.340;2023-04-03T06:03:06;5.23;;;4.03;;
21621;SDS011;10973;46.706;12.340;2023-04-03T06:05:34;6.30;;;5.57;;
21621;SDS011;10973;46.706;12.340;2023-04-03T06:08:02;6.60;;;5.47;;
21621;SDS011;10973;46.706;12.340;2023-04-03T06:10:30;7.10;;;4.83;;
21621;SDS011;10973;46.706;12.340;2023-04-03T06:12:58;5.67;;;4.73;;
21621;SDS011;10973;46.706;12.340;2023-04-03T06:15:25;8.50;;;6.43;;
21621;SDS011;10973;46.706;12.340;2023-04-03T06:17:52;7.93;;;6.57;;
21621;SDS011;10973;46.706;12.340;2023-04-03T06:20:19;8.23;;;5.83;;
21621;SDS011;10973;46.706;12.340;2023-04-03T06:22:46;19.77;;;10.93;;
21621;SDS011;10973;46.706;12.340;2023-04-03T06:25:14;14.53;;;8.83;;
21621;SDS011;10973;46.706;12.340;2023-04-03T06:27:42;13.50;;;5.20;;
21621;SDS011;10973;46.706;12.340;2023-04-03T06:30:09;17.57;;;6.33;;
21621;SDS011;10973;46.706;12.340;2023-04-03T06:32:37;12.10;;;6.70;;
21621;SDS011;10973;46.706;12.340;2023-04-03T06:35:04;9.60;;;7.77;;
21621;SDS011;10973;46.706;12.340;2023-04-03T06:37:33;22.67;;;13.63;;
21621;SDS011;10973;46.706;12.340;2023-04-03T06:40:00;14.80;;;8.80;;
21621;SDS011;10973;46.706;12.340;2023-04-03T06:42:28;16.50;;;7.70;;
21621;SDS011;10973;46.706;12.340;2023-04-03T06:44:56;12.97;;;6.60;;
21621;SDS011;10973;46.706;12.340;2023-04-03T06:47:23;9.57;;;5.53;;
21621;SDS011;10973;46.706;12.340;2023-04-03T06:49:50;11.27;;;6.13;;
21621;SDS011;10973;46.706;12.340;2023-04-03T06:52:17;11.77;;;5.80;;
21621;SDS011;10973;46.706;12.340;2023-04-03T06:54:45;11.53;;;6.90;;
21621;SDS011;10973;46.706;12.340;2023-04-03T06:57:12;11.50;;;6.50;;
21621;SDS011;10973;46.706;12.340;2023-04-03T06:59:39;10.83;;;7.80;;
21621;SDS011;10973;46.706;12.340;2023-04-03T07:02:08;6.70;;;4.93;;
21621;SDS011;10973;46.706;12.340;2023-04-03T07:04:38;7.33;;;4.47;;
21621;SDS011;10973;46.706;12.340;2023-04-03T07:07:05;3.57;;;2.37;;
21621;SDS011;10973;46.706;12.340;2023-04-03T07:09:33;3.93;;;1.93;;
21621;SDS011;10973;46.706;12.340;2023-04-03T07:12:00;2.30;;;1.10;;
21621;SDS011;10973;46.706;12.340;2023-04-03T07:14:28;1.00;;;1.00;;
21621;SDS011;10973;46.706;12.340;2023-04-03T07:16:55;7.57;;;2.10;;
21621;SDS011;10973;46.706;12.340;2023-04-03T07:19:22;1.30;;;1.23;;
21621;SDS011;10973;46.706;12.340;2023-04-03T07:21:49;1.00;;;1.00;;
21621;SDS011;10973;46.706;12.340;2023-04-03T07:24:16;1.00;;;1.00;;
21621;SDS011;10973;46.706;12.340;2023-04-03T07:26:48;1.00;;;1.00;;
21621;SDS011;10973;46.706;12.340;2023-04-03T07:29:17;1.00;;;1.00;;
21621;SDS011;10973;46.706;12.340;2023-04-03T07:31:44;1.13;;;1.00;;
21621;SDS011;10973;46.706;12.340;2023-04-03T07:34:12;1.37;;;1.30;;
21621;SDS011;10973;46.706;12.340;2023-04-03T07:36:39;1.37;;;1.10;;
21621;SDS011;10973;46.706;12.340;2023-04-03T07:39:06;1.10;;;1.00;;
21621;SDS011;10973;46.706;12.340;2023-04-03T07:41:34;1.17;;;1.17;;
21621;SDS011;10973;46.706;12.340;2023-04-03T07:44:01;1.00;;;1.00;;
21621;SDS011;10973;46.706;12.340;2023-04-03T07:46:28;1.00;;;1.00;;
21621;SDS011;10973;46.706;12.340;2023-04-03T07:48:56;1.03;;;1.03;;
21621;SDS011;10973;46.706;12.340;2023-04-03T07:51:24;1.20;;;1.20;;
21621;SDS011;10973;46.706;12.340;2023-04-03T07:53:51;0.97;;;0.97;;
21621;SDS011;10973;46.706;12.340;2023-04-03T07:56:19;0.90;;;0.90;;
21621;SDS011;10973;46.706;12.340;2023-04-03T07:58:46;1.00;;;1.00;;
21621;SDS011;10973;46.706;12.340;2023-04-03T08:01:13;1.00;;;1.00;;
21621;SDS011;10973;46.706;12.340;2023-04-03T08:03:40;1.93;;;1.20;;
21621;SDS011;10973;46.706;12.340;2023-04-03T08:06:08;0.80;;;0.80;;
21621;SDS011;10973;46.706;12.340;2023-04-03T08:08:41;0.70;;;0.70;;
21621;SDS011;10973;46.706;12.340;2023-04-03T08:11:09;10.37;;;1.33;;
21621;SDS011;10973;46.706;12.340;2023-04-03T08:13:38;0.80;;;0.80;;
21621;SDS011;10973;46.706;12.340;2023-04-03T08:16:12;1.17;;;1.17;;
21621;SDS011;10973;46.706;12.340;2023-04-03T08:18:46;1.43;;;0.90;;
21621;SDS011;10973;46.706;12.340;2023-04-03T08:21:13;1.70;;;1.20;;
21621;SDS011;10973;46.706;12.340;2023-04-03T08:23:41;1.10;;;1.10;;
21621;SDS011;10973;46.706;12.340;2023-04-03T08:26:11;1.20;;;1.10;;
21621;SDS011;10973;46.706;12.340;2023-04-03T08:28:42;4.80;;;1.63;;
21621;SDS011;10973;46.706;12.340;2023-04-03T08:31:10;0.87;;;0.87;;
21621;SDS011;10973;46.706;12.340;2023-04-03T08:33:43;1.10;;;1.10;;
21621;SDS011;10973;46.706;12.340;2023-04-03T08:36:18;3.93;;;0.90;;
21621;SDS011;10973;46.706;12.340;2023-04-03T08:38:52;3.67;;;0.87;;
21621;SDS011;10973;46.706;12.340;2023-04-03T08:50:24;9.87;;;1.17;;
21621;SDS011;10973;46.706;12.340;2023-04-03T08:53:02;0.60;;;0.60;;
21621;SDS011;10973;46.706;12.340;2023-04-03T08:55:40;0.63;;;0.63;;
21621;SDS011;10973;46.706;12.340;2023-04-03T08:58:14;1.17;;;0.77;;
21621;SDS011;10973;46.706;12.340;2023-04-03T09:01:04;0.60;;;0.60;;
21621;SDS011;10973;46.706;12.340;2023-04-03T09:03:43;0.60;;;0.60;;
21621;SDS011;10973;46.706;12.340;2023-04-03T09:06:12;1.00;;;1.00;;
21621;SDS011;10973;46.706;12.340;2023-04-03T09:14:56;1.33;;;0.60;;
21621;SDS011;10973;46.706;12.340;2023-04-03T09:20:28;0.80;;;0.80;;
21621;SDS011;10973;46.706;12.340;2023-04-03T09:23:24;2.37;;;0.93;;
21621;SDS011;10973;46.706;12.340;2023-04-03T09:26:09;0.60;;;0.60;;
21621;SDS011;10973;46.706;12.340;2023-04-03T09:28:50;0.80;;;0.80;;
21621;SDS011;10973;46.706;12.340;2023-04-03T09:31:22;0.60;;;0.60;;
21621;SDS011;10973;46.706;12.340;2023-04-03T09:33:54;2.50;;;0.63;;
21621;SDS011;10973;46.706;12.340;2023-04-03T09:36:50;0.60;;;0.60;;
21621;SDS011;10973;46.706;12.340;2023-04-03T09:39:25;0.60;;;0.60;;
21621;SDS011;10973;46.706;12.340;2023-04-03T09:44:32;0.60;;;0.60;;
21621;SDS011;10973;46.706;12.340;2023-04-03T09:52:42;1.33;;;0.60;;
21621;SDS011;10973;46.706;12.340;2023-04-03T09:55:19;0.63;;;0.63;;
21621;SDS011;10973;46.706;12.340;2023-04-03T09:57:54;0.73;;;0.73;;
21621;SDS011;10973;46.706;12.340;2023-04-03T10:00:28;0.60;;;0.60;;
21621;SDS011;10973;46.706;12.340;2023-04-03T10:03:05;0.87;;;0.80;;
21621;SDS011;10973;46.706;12.340;2023-04-03T10:05:51;1.30;;;0.87;;
21621;SDS011;10973;46.706;12.340;2023-04-03T10:08:23;0.70;;;0.70;;
21621;SDS011;10973;46.706;12.340;2023-04-03T10:11:05;0.70;;;0.70;;
21621;SDS011;10973;46.706;12.340;2023-04-03T10:13:55;0.67;;;0.67;;
21621;SDS011;10973;46.706;12.340;2023-04-03T10:16:50;0.90;;;0.90;;
21621;SDS011;10973;46.706;12.340;2023-04-03T10:19:37;0.60;;;0.60;;
21621;SDS011;10973;46.706;12.340;2023-04-03T10:22:46;0.60;;;0.60;;
21621;SDS011;10973;46.706;12.340;2023-04-03T10:31:53;0.70;;;0.70;;
21621;SDS011;10973;46.706;12.340;2023-04-03T10:34:33;0.90;;;0.90;;
21621;SDS011;10973;46.706;12.340;2023-04-03T10:43:09;0.90;;;0.90;;
21621;SDS011;10973;46.706;12.340;2023-04-03T10:45:57;0.50;;;0.50;;
21621;SDS011;10973;46.706;12.340;2023-04-03T10:51:39;0.60;;;0.60;;
21621;SDS011;10973;46.706;12.340;2023-04-03T10:54:19;1.57;;;0.50;;
21621;SDS011;10973;46.706;12.340;2023-04-03T10:57:03;0.67;;;0.67;;
21621;SDS011;10973;46.706;12.340;2023-04-03T10:59:45;3.13;;;0.70;;
21621;SDS011;10973;46.706;12.340;2023-04-03T11:02:24;1.00;;;0.73;;
21621;SDS011;10973;46.706;12.340;2023-04-03T11:05:01;1.95;;;1.85;;
21621;SDS011;10973;46.706;12.340;2023-04-03T11:07:43;1.40;;;0.63;;
21621;SDS011;10973;46.706;12.340;2023-04-03T11:10:21;0.70;;;0.70;;
21621;SDS011;10973;46.706;12.340;2023-04-03T11:13:13;22.25;;;11.15;;
21621;SDS011;10973;46.706;12.340;2023-04-03T11:15:56;5.95;;;2.25;;
21621;SDS011;10973;46.706;12.340;2023-04-03T11:18:27;3.20;;;1.40;;
21621;SDS011;10973;46.706;12.340;2023-04-03T11:24:03;2.30;;;1.60;;
21621;SDS011;10973;46.706;12.340;2023-04-03T11:26:43;1.00;;;1.00;;
21621;SDS011;10973;46.706;12.340;2023-04-03T11:29:13;0.88;;;0.88;;
21621;SDS011;10973;46.706;12.340;2023-04-03T11:34:53;0.77;;;0.77;;
21621;SDS011;10973;46.706;12.340;2023-04-03T11:37:31;1.70;;;1.02;;
21621;SDS011;10973;46.706;12.340;2023-04-03T11:42:46;0.85;;;0.80;;
21621;SDS011;10973;46.706;12.340;2023-04-03T11:45:24;13.30;;;6.20;;
21621;SDS011;10973;46.706;12.340;2023-04-03T11:48:06;1.13;;;0.85;;
21621;SDS011;10973;46.706;12.340;2023-04-03T11:50:53;0.63;;;0.63;;
21621;SDS011;10973;46.706;12.340;2023-04-03T11:53:26;0.80;;;0.60;;
21621;SDS011;10973;46.706;12.340;2023-04-03T11:55:58;1.20;;;1.20;;
21621;SDS011;10973;46.706;12.340;2023-04-03T11:58:33;0.93;;;0.93;;
21621;SDS011;10973;46.706;12.340;2023-04-03T12:13:41;6.47;;;1.30;;
21621;SDS011;10973;46.706;12.340;2023-04-03T12:16:25;0.97;;;0.97;;
21621;SDS011;10973;46.706;12.340;2023-04-03T12:19:01;1.10;;;1.10;;
21621;SDS011;10973;46.706;12.340;2023-04-03T12:26:46;3.47;;;1.40;;
21621;SDS011;10973;46.706;12.340;2023-04-03T12:29:36;0.90;;;0.90;;
21621;SDS011;10973;46.706;12.340;2023-04-03T12:38:19;4.63;;;1.03;;
21621;SDS011;10973;46.706;12.340;2023-04-03T12:43:56;29.50;;;2.70;;
21621;SDS011;10973;46.706;12.340;2023-04-03T12:46:39;0.83;;;0.83;;
21621;SDS011;10973;46.706;12.340;2023-04-03T12:52:51;0.60;;;0.60;;
21621;SDS011;10973;46.706;12.340;2023-04-03T12:55:08;5.30;;;1.13;;
21621;SDS011;10973;46.706;12.340;2023-04-03T12:57:46;0.90;;;0.90;;
21621;SDS011;10973;46.706;12.340;2023-04-03T13:00:21;2.50;;;0.70;;
21621;SDS011;10973;46.706;12.340;2023-04-03T13:03:02;0.90;;;0.90;;
21621;SDS011;10973;46.706;12.340;2023-04-03T13:05:33;1.07;;;1.00;;
21621;SDS011;10973;46.706;12.340;2023-04-03T13:08:04;19.40;;;2.07;;
21621;SDS011;10973;46.706;12.340;2023-04-03T13:10:50;0.90;;;0.90;;
21621;SDS011;10973;46.706;12.340;2023-04-03T13:13:29;3.70;;;0.70;;
21621;SDS011;10973;46.706;12.340;2023-04-03T13:15:56;0.90;;;0.90;;
21621;SDS011;10973;46.706;12.340;2023-04-03T13:18:34;10.00;;;1.63;;
21621;SDS011;10973;46.706;12.340;2023-04-03T13:21:07;3.13;;;1.10;;
21621;SDS011;10973;46.706;12.340;2023-04-03T13:23:45;0.87;;;0.70;;
21621;SDS011;10973;46.706;12.340;2023-04-03T13:26:24;0.70;;;0.70;;
21621;SDS011;10973;46.706;12.340;2023-04-03T13:29:02;3.00;;;1.00;;
21621;SDS011;10973;46.706;12.340;2023-04-03T13:31:55;1.13;;;1.00;;
21621;SDS011;10973;46.706;12.340;2023-04-03T13:34:26;2.00;;;0.90;;
21621;SDS011;10973;46.706;12.340;2023-04-03T13:37:01;10.07;;;1.47;;
21621;SDS011;10973;46.706;12.340;2023-04-03T13:39:32;7.73;;;1.40;;
21621;SDS011;10973;46.706;12.340;2023-04-03T13:42:17;1.10;;;1.10;;
21621;SDS011;10973;46.706;12.340;2023-04-03T13:47:47;18.17;;;2.40;;
21621;SDS011;10973;46.706;12.340;2023-04-03T13:50:22;0.80;;;0.80;;
21621;SDS011;10973;46.706;12.340;2023-04-03T13:52:59;1.10;;;0.90;;
21621;SDS011;10973;46.706;12.340;2023-04-03T13:58:35;0.93;;;0.80;;
21621;SDS011;10973;46.706;12.340;2023-04-03T14:03:51;1.00;;;1.00;;
21621;SDS011;10973;46.706;12.340;2023-04-03T14:06:24;0.80;;;0.80;;
21621;SDS011;10973;46.706;12.340;2023-04-03T14:08:53;1.20;;;1.10;;
21621;SDS011;10973;46.706;12.340;2023-04-03T14:11:21;1.10;;;1.10;;
21621;SDS011;10973;46.706;12.340;2023-04-03T14:13:55;0.93;;;0.93;;
21621;SDS011;10973;46.706;12.340;2023-04-03T14:16:29;1.73;;;1.30;;
21621;SDS011;10973;46.706;12.340;2023-04-03T14:19:03;1.20;;;1.20;;
21621;SDS011;10973;46.706;12.340;2023-04-03T14:21:31;2.30;;;2.10;;
21621;SDS011;10973;46.706;12.340;2023-04-03T14:23:58;2.97;;;2.60;;
21621;SDS011;10973;46.706;12.340;2023-04-03T14:26:28;1.60;;;1.60;;
21621;SDS011;10973;46.706;12.340;2023-04-03T14:28:55;1.30;;;1.30;;
21621;SDS011;10973;46.706;12.340;2023-04-03T14:31:23;1.10;;;1.10;;
21621;SDS011;10973;46.706;12.340;2023-04-03T14:33:51;1.17;;;1.00;;
21621;SDS011;10973;46.706;12.340;2023-04-03T14:36:22;2.00;;;1.90;;
21621;SDS011;10973;46.706;12.340;2023-04-03T14:38:52;6.23;;;1.30;;
21621;SDS011;10973;46.706;12.340;2023-04-03T14:41:21;0.70;;;0.70;;
21621;SDS011;10973;46.706;12.340;2023-04-03T14:43:52;1.30;;;1.20;;
21621;SDS011;10973;46.706;12.340;2023-04-03T14:49:14;1.00;;;1.00;;
21621;SDS011;10973;46.706;12.340;2023-04-03T14:51:48;2.10;;;1.00;;
21621;SDS011;10973;46.706;12.340;2023-04-03T14:54:17;1.20;;;1.10;;
21621;SDS011;10973;46.706;12.340;2023-04-03T14:56:48;1.00;;;1.00;;
21621;SDS011;10973;46.706;12.340;2023-04-03T14:59:16;0.90;;;0.90;;
21621;SDS011;10973;46.706;12.340;2023-04-03T15:01:43;0.90;;;0.90;;
21621;SDS011;10973;46.706;12.340;2023-04-03T15:04:14;0.90;;;0.90;;
21621;SDS011;10973;46.706;12.340;2023-04-03T15:06:45;16.33;;;1.87;;
21621;SDS011;10973;46.706;12.340;2023-04-03T15:09:21;0.90;;;0.90;;
21621;SDS011;10973;46.706;12.340;2023-04-03T15:11:53;1.00;;;1.00;;
21621;SDS011;10973;46.706;12.340;2023-04-03T15:14:22;0.90;;;0.90;;
21621;SDS011;10973;46.706;12.340;2023-04-03T15:17:03;1.20;;;1.10;;
21621;SDS011;10973;46.706;12.340;2023-04-03T15:19:32;1.40;;;1.30;;
21621;SDS011;10973;46.706;12.340;2023-04-03T15:22:04;0.83;;;0.83;;
21621;SDS011;10973;46.706;12.340;2023-04-03T15:24:32;1.97;;;0.80;;
21621;SDS011;10973;46.706;12.340;2023-04-03T15:26:59;0.70;;;0.70;;
21621;SDS011;10973;46.706;12.340;2023-04-03T15:29:28;0.90;;;0.90;;
21621;SDS011;10973;46.706;12.340;2023-04-03T15:31:55;1.47;;;0.80;;
21621;SDS011;10973;46.706;12.340;2023-04-03T15:34:23;0.90;;;0.90;;
21621;SDS011;10973;46.706;12.340;2023-04-03T15:36:50;0.90;;;0.90;;
21621;SDS011;10973;46.706;12.340;2023-04-03T15:39:18;0.90;;;0.90;;
21621;SDS011;10973;46.706;12.340;2023-04-03T15:41:47;0.90;;;0.90;;
21621;SDS011;10973;46.706;12.340;2023-04-03T15:44:14;1.00;;;1.00;;
21621;SDS011;10973;46.706;12.340;2023-04-03T15:46:42;1.33;;;0.80;;
21621;SDS011;10973;46.706;12.340;2023-04-03T15:49:10;0.60;;;0.60;;
21621;SDS011;10973;46.706;12.340;2023-04-03T15:51:38;0.60;;;0.60;;
21621;SDS011;10973;46.706;12.340;2023-04-03T15:54:06;0.80;;;0.80;;
21621;SDS011;10973;46.706;12.340;2023-04-03T15:56:34;1.13;;;0.90;;
21621;SDS011;10973;46.706;12.340;2023-04-03T15:59:01;0.90;;;0.90;;
21621;SDS011;10973;46.706;12.340;2023-04-03T16:01:29;1.10;;;1.10;;
21621;SDS011;10973;46.706;12.340;2023-04-03T16:03:57;0.70;;;0.70;;
21621;SDS011;10973;46.706;12.340;2023-04-03T16:06:25;4.73;;;1.60;;
21621;SDS011;10973;46.706;12.340;2023-04-03T16:08:53;2.80;;;1.13;;
21621;SDS011;10973;46.706;12.340;2023-04-03T16:11:20;3.40;;;1.20;;
21621;SDS011;10973;46.706;12.340;2023-04-03T16:13:48;4.83;;;1.30;;
21621;SDS011;10973;46.706;12.340;2023-04-03T16:16:15;2.33;;;1.23;;
21621;SDS011;10973;46.706;12.340;2023-04-03T16:18:43;1.07;;;1.07;;
21621;SDS011;10973;46.706;12.340;2023-04-03T16:21:11;0.90;;;0.90;;
21621;SDS011;10973;46.706;12.340;2023-04-03T16:23:42;3.20;;;1.10;;
21621;SDS011;10973;46.706;12.340;2023-04-03T16:26:11;1.27;;;1.03;;
21621;SDS011;10973;46.706;12.340;2023-04-03T16:28:39;0.90;;;0.90;;